Terminal Aerodrome Forecast
Issued by NWS Mt. Holly, NJ

Home | Current Version | Previous Version | Text Only | Print | Product List | Glossary On
Versions: 1 2 3 4 5 6 7 8 9 10 11 12 13 14 15 16 17 18 19 20 21 22 23 24 25 26 27 28 29
213
FTUS41 KPHI 272141 CCA
TAFPHL
TAF COR
KPHL 272141Z 2721/2824 24008KT P6SM FEW015 BKN090
     FM280000 12005KT P6SM BKN035
     FM280200 12004KT P6SM OVC015
     FM280400 VRB05KT 5SM BR OVC005
     FM280600 VRB05KT 2SM -SHRA BR OVC003
     FM281400 VRB05KT 4SM -SHRA BR OVC007
     FM281800 18008KT P6SM BKN015=

USA.gov is the U.S. government's official web portal to all federal, state and local government web resources and services.